sensor_id;sensor_type;location;lat;lon;timestamp;temperature;humidity
25468;DHT22;13384;24.794;110.498;2022-08-19T00:00:09;27.80;99.90
25468;DHT22;13384;24.794;110.498;2022-08-19T00:02:43;28.00;99.90
25468;DHT22;13384;24.794;110.498;2022-08-19T00:05:21;28.20;99.90
25468;DHT22;13384;24.794;110.498;2022-08-19T00:07:52;28.20;99.90
25468;DHT22;13384;24.794;110.498;2022-08-19T00:10:25;28.30;99.90
25468;DHT22;13384;24.794;110.498;2022-08-19T00:12:57;28.40;99.90
25468;DHT22;13384;24.794;110.498;2022-08-19T00:15:28;28.50;99.90
25468;DHT22;13384;24.794;110.498;2022-08-19T00:17:59;28.60;99.90
25468;DHT22;13384;24.794;110.498;2022-08-19T00:20:31;28.60;99.90
25468;DHT22;13384;24.794;110.498;2022-08-19T00:23:02;28.60;99.90
25468;DHT22;13384;24.794;110.498;2022-08-19T00:25:33;28.60;99.90
25468;DHT22;13384;24.794;110.498;2022-08-19T00:28:27;28.80;99.90
25468;DHT22;13384;24.794;110.498;2022-08-19T00:30:59;28.90;99.90
25468;DHT22;13384;24.794;110.498;2022-08-19T00:33:31;28.80;99.90
25468;DHT22;13384;24.794;110.498;2022-08-19T00:36:07;28.80;99.90
25468;DHT22;13384;24.794;110.498;2022-08-19T00:38:40;29.00;99.90
25468;DHT22;13384;24.794;110.498;2022-08-19T00:41:15;29.10;99.90
25468;DHT22;13384;24.794;110.498;2022-08-19T00:44:13;29.10;99.90
25468;DHT22;13384;24.794;110.498;2022-08-19T00:46:46;29.20;99.90
25468;DHT22;13384;24.794;110.498;2022-08-19T00:49:38;29.20;99.90
25468;DHT22;13384;24.794;110.498;2022-08-19T00:52:35;29.20;99.90
25468;DHT22;13384;24.794;110.498;2022-08-19T00:55:09;29.20;99.90
25468;DHT22;13384;24.794;110.498;2022-08-19T00:57:46;29.20;99.90
25468;DHT22;13384;24.794;110.498;2022-08-19T01:00:24;29.20;99.90
25468;DHT22;13384;24.794;110.498;2022-08-19T01:02:56;29.30;99.90
25468;DHT22;13384;24.794;110.498;2022-08-19T01:05:28;29.40;99.90
25468;DHT22;13384;24.794;110.498;2022-08-19T01:08:02;29.30;99.90
25468;DHT22;13384;24.794;110.498;2022-08-19T01:10:48;29.40;99.90
25468;DHT22;13384;24.794;110.498;2022-08-19T01:13:29;29.50;99.90
25468;DHT22;13384;24.794;110.498;2022-08-19T01:16:20;29.60;99.90
25468;DHT22;13384;24.794;110.498;2022-08-19T01:18:53;29.60;99.90
25468;DHT22;13384;24.794;110.498;2022-08-19T01:21:31;29.50;99.90
25468;DHT22;13384;24.794;110.498;2022-08-19T01:24:03;29.60;99.90
25468;DHT22;13384;24.794;110.498;2022-08-19T01:26:40;29.70;99.90
25468;DHT22;13384;24.794;110.498;2022-08-19T01:29:15;29.80;99.90
25468;DHT22;13384;24.794;110.498;2022-08-19T01:31:47;29.80;99.90
25468;DHT22;13384;24.794;110.498;2022-08-19T01:34:22;29.80;99.90
25468;DHT22;13384;24.794;110.498;2022-08-19T01:36:55;29.90;99.90
25468;DHT22;13384;24.794;110.498;2022-08-19T01:39:26;30.00;99.90
25468;DHT22;13384;24.794;110.498;2022-08-19T01:42:00;30.00;99.90
25468;DHT22;13384;24.794;110.498;2022-08-19T01:44:35;30.10;99.90
25468;DHT22;13384;24.794;110.498;2022-08-19T01:47:08;30.00;99.90
25468;DHT22;13384;24.794;110.498;2022-08-19T01:50:05;30.10;99.90
25468;DHT22;13384;24.794;110.498;2022-08-19T01:52:39;30.20;99.90
25468;DHT22;13384;24.794;110.498;2022-08-19T01:55:15;30.40;99.90
25468;DHT22;13384;24.794;110.498;2022-08-19T01:57:51;30.40;99.90
25468;DHT22;13384;24.794;110.498;2022-08-19T02:00:29;30.50;99.90
25468;DHT22;13384;24.794;110.498;2022-08-19T02:03:01;30.60;99.90
25468;DHT22;13384;24.794;110.498;2022-08-19T02:05:33;30.60;99.90
25468;DHT22;13384;24.794;110.498;2022-08-19T02:08:05;30.70;99.90
25468;DHT22;13384;24.794;110.498;2022-08-19T02:10:41;30.70;99.90
25468;DHT22;13384;24.794;110.498;2022-08-19T02:13:13;30.80;99.90
25468;DHT22;13384;24.794;110.498;2022-08-19T02:15:52;30.70;99.90
25468;DHT22;13384;24.794;110.498;2022-08-19T02:18:23;30.70;99.90
25468;DHT22;13384;24.794;110.498;2022-08-19T02:21:19;30.60;99.90
25468;DHT22;13384;24.794;110.498;2022-08-19T02:23:51;30.90;99.90
25468;DHT22;13384;24.794;110.498;2022-08-19T02:26:23;30.90;99.90
25468;DHT22;13384;24.794;110.498;2022-08-19T02:28:57;30.90;99.90
25468;DHT22;13384;24.794;110.498;2022-08-19T02:31:29;31.10;99.90
25468;DHT22;13384;24.794;110.498;2022-08-19T02:34:01;31.10;99.90
25468;DHT22;13384;24.794;110.498;2022-08-19T02:36:32;31.10;99.90
25468;DHT22;13384;24.794;110.498;2022-08-19T02:39:06;31.10;99.90
25468;DHT22;13384;24.794;110.498;2022-08-19T02:41:38;31.10;99.90
25468;DHT22;13384;24.794;110.498;2022-08-19T02:44:09;31.10;99.90
25468;DHT22;13384;24.794;110.498;2022-08-19T02:47:00;31.20;99.90
25468;DHT22;13384;24.794;110.498;2022-08-19T02:49:31;31.00;99.90
25468;DHT22;13384;24.794;110.498;2022-08-19T02:52:03;30.90;99.90
25468;DHT22;13384;24.794;110.498;2022-08-19T02:54:34;30.90;99.90
25468;DHT22;13384;24.794;110.498;2022-08-19T02:57:07;30.80;99.90
25468;DHT22;13384;24.794;110.498;2022-08-19T02:59:59;30.90;99.90
25468;DHT22;13384;24.794;110.498;2022-08-19T03:02:51;31.00;99.90
25468;DHT22;13384;24.794;110.498;2022-08-19T03:05:22;30.90;99.90
25468;DHT22;13384;24.794;110.498;2022-08-19T03:08:14;30.90;99.90
25468;DHT22;13384;24.794;110.498;2022-08-19T03:10:47;31.00;99.90
25468;DHT22;13384;24.794;110.498;2022-08-19T03:13:18;31.30;99.90
25468;DHT22;13384;24.794;110.498;2022-08-19T03:15:50;31.50;99.90
25468;DHT22;13384;24.794;110.498;2022-08-19T03:18:21;31.50;99.90
25468;DHT22;13384;24.794;110.498;2022-08-19T03:20:54;31.70;99.90
25468;DHT22;13384;24.794;110.498;2022-08-19T03:23:27;31.70;99.90
25468;DHT22;13384;24.794;110.498;2022-08-19T03:25:58;32.00;99.90
25468;DHT22;13384;24.794;110.498;2022-08-19T03:28:45;32.20;99.90
25468;DHT22;13384;24.794;110.498;2022-08-19T03:31:42;32.10;99.90
25468;DHT22;13384;24.794;110.498;2022-08-19T03:34:26;32.30;99.90
25468;DHT22;13384;24.794;110.498;2022-08-19T03:37:02;32.20;99.90
25468;DHT22;13384;24.794;110.498;2022-08-19T03:39:37;32.20;99.90
25468;DHT22;13384;24.794;110.498;2022-08-19T03:42:09;32.40;99.90
25468;DHT22;13384;24.794;110.498;2022-08-19T03:45:01;32.40;99.90
25468;DHT22;13384;24.794;110.498;2022-08-19T03:47:33;32.70;99.90
25468;DHT22;13384;24.794;110.498;2022-08-19T03:50:05;32.90;99.90
25468;DHT22;13384;24.794;110.498;2022-08-19T03:52:36;32.90;99.90
25468;DHT22;13384;24.794;110.498;2022-08-19T03:55:14;32.80;99.90
25468;DHT22;13384;24.794;110.498;2022-08-19T03:57:45;32.50;99.90
25468;DHT22;13384;24.794;110.498;2022-08-19T04:00:17;32.70;99.90
25468;DHT22;13384;24.794;110.498;2022-08-19T04:02:49;32.80;99.90
25468;DHT22;13384;24.794;110.498;2022-08-19T04:05:29;32.70;99.90
25468;DHT22;13384;24.794;110.498;2022-08-19T04:08:00;32.90;99.90
25468;DHT22;13384;24.794;110.498;2022-08-19T04:10:36;33.20;99.90
25468;DHT22;13384;24.794;110.498;2022-08-19T04:13:08;33.30;99.90
25468;DHT22;13384;24.794;110.498;2022-08-19T04:15:41;33.40;99.90
25468;DHT22;13384;24.794;110.498;2022-08-19T04:18:13;33.30;99.90
25468;DHT22;13384;24.794;110.498;2022-08-19T04:20:46;33.40;99.90
25468;DHT22;13384;24.794;110.498;2022-08-19T04:23:37;33.60;99.80
25468;DHT22;13384;24.794;110.498;2022-08-19T04:26:15;33.50;99.30
25468;DHT22;13384;24.794;110.498;2022-08-19T04:28:47;33.30;99.90
25468;DHT22;13384;24.794;110.498;2022-08-19T04:31:22;33.20;99.90
25468;DHT22;13384;24.794;110.498;2022-08-19T04:33:57;33.10;99.90
25468;DHT22;13384;24.794;110.498;2022-08-19T04:36:33;33.10;99.90
25468;DHT22;13384;24.794;110.498;2022-08-19T04:39:10;33.30;99.90
25468;DHT22;13384;24.794;110.498;2022-08-19T04:41:45;33.50;99.80
25468;DHT22;13384;24.794;110.498;2022-08-19T04:44:36;33.50;99.30
25468;DHT22;13384;24.794;110.498;2022-08-19T04:47:15;33.20;99.90
25468;DHT22;13384;24.794;110.498;2022-08-19T04:50:07;33.00;99.90
25468;DHT22;13384;24.794;110.498;2022-08-19T04:52:58;33.10;99.90
25468;DHT22;13384;24.794;110.498;2022-08-19T04:55:30;33.40;99.50
25468;DHT22;13384;24.794;110.498;2022-08-19T04:58:06;33.60;98.70
25468;DHT22;13384;24.794;110.498;2022-08-19T05:00:39;33.90;98.80
25468;DHT22;13384;24.794;110.498;2022-08-19T05:03:11;34.10;96.70
25468;DHT22;13384;24.794;110.498;2022-08-19T05:05:45;34.30;96.60
25468;DHT22;13384;24.794;110.498;2022-08-19T05:08:38;34.60;95.70
25468;DHT22;13384;24.794;110.498;2022-08-19T05:11:23;34.90;95.60
25468;DHT22;13384;24.794;110.498;2022-08-19T05:13:56;35.20;96.00
25468;DHT22;13384;24.794;110.498;2022-08-19T05:16:28;35.10;94.70
25468;DHT22;13384;24.794;110.498;2022-08-19T05:19:00;34.70;94.90
25468;DHT22;13384;24.794;110.498;2022-08-19T05:21:50;34.70;94.60
25468;DHT22;13384;24.794;110.498;2022-08-19T05:24:39;35.00;94.50
25468;DHT22;13384;24.794;110.498;2022-08-19T05:27:31;35.50;94.30
25468;DHT22;13384;24.794;110.498;2022-08-19T05:30:03;35.30;94.70
25468;DHT22;13384;24.794;110.498;2022-08-19T05:32:34;34.80;94.60
25468;DHT22;13384;24.794;110.498;2022-08-19T05:35:08;34.90;94.90
25468;DHT22;13384;24.794;110.498;2022-08-19T05:37:40;34.90;94.60
25468;DHT22;13384;24.794;110.498;2022-08-19T05:40:12;35.00;93.90
25468;DHT22;13384;24.794;110.498;2022-08-19T05:42:44;34.70;94.20
25468;DHT22;13384;24.794;110.498;2022-08-19T05:45:40;34.70;94.10
25468;DHT22;13384;24.794;110.498;2022-08-19T05:48:13;34.80;93.20
25468;DHT22;13384;24.794;110.498;2022-08-19T05:51:05;35.10;92.50
25468;DHT22;13384;24.794;110.498;2022-08-19T05:53:37;35.50;92.70
25468;DHT22;13384;24.794;110.498;2022-08-19T05:56:13;35.70;92.50
25468;DHT22;13384;24.794;110.498;2022-08-19T05:58:48;35.50;92.30
25468;DHT22;13384;24.794;110.498;2022-08-19T06:01:19;35.60;92.10
25468;DHT22;13384;24.794;110.498;2022-08-19T06:04:11;35.60;92.60
25468;DHT22;13384;24.794;110.498;2022-08-19T06:07:03;35.40;92.60
25468;DHT22;13384;24.794;110.498;2022-08-19T06:09:41;35.30;93.00
25468;DHT22;13384;24.794;110.498;2022-08-19T06:12:33;35.60;92.50
25468;DHT22;13384;24.794;110.498;2022-08-19T06:15:10;35.70;92.30
25468;DHT22;13384;24.794;110.498;2022-08-19T06:17:43;36.10;91.70
25468;DHT22;13384;24.794;110.498;2022-08-19T06:20:17;36.10;90.30
25468;DHT22;13384;24.794;110.498;2022-08-19T06:23:09;36.30;91.90
25468;DHT22;13384;24.794;110.498;2022-08-19T06:25:45;36.20;91.10
25468;DHT22;13384;24.794;110.498;2022-08-19T06:28:16;36.20;90.20
25468;DHT22;13384;24.794;110.498;2022-08-19T06:30:48;35.90;89.50
25468;DHT22;13384;24.794;110.498;2022-08-19T06:33:20;35.90;90.10
25468;DHT22;13384;24.794;110.498;2022-08-19T06:35:51;35.70;88.70
25468;DHT22;13384;24.794;110.498;2022-08-19T06:38:23;35.90;87.70
25468;DHT22;13384;24.794;110.498;2022-08-19T06:41:04;36.20;89.70
25468;DHT22;13384;24.794;110.498;2022-08-19T06:43:56;36.50;90.40
25468;DHT22;13384;24.794;110.498;2022-08-19T06:46:28;36.10;86.50
25468;DHT22;13384;24.794;110.498;2022-08-19T06:49:03;36.00;86.60
25468;DHT22;13384;24.794;110.498;2022-08-19T06:51:39;36.00;86.90
25468;DHT22;13384;24.794;110.498;2022-08-19T06:54:12;36.00;86.40
25468;DHT22;13384;24.794;110.498;2022-08-19T06:56:47;36.20;86.00
25468;DHT22;13384;24.794;110.498;2022-08-19T06:59:22;36.20;85.50
25468;DHT22;13384;24.794;110.498;2022-08-19T07:01:58;36.20;85.20
25468;DHT22;13384;24.794;110.498;2022-08-19T07:04:31;36.40;84.90
25468;DHT22;13384;24.794;110.498;2022-08-19T07:07:09;36.30;84.90
25468;DHT22;13384;24.794;110.498;2022-08-19T07:10:09;36.40;84.50
25468;DHT22;13384;24.794;110.498;2022-08-19T07:12:40;36.40;86.20
25468;DHT22;13384;24.794;110.498;2022-08-19T07:15:12;36.30;84.10
25468;DHT22;13384;24.794;110.498;2022-08-19T07:17:43;36.20;84.10
25468;DHT22;13384;24.794;110.498;2022-08-19T07:20:20;36.10;85.50
25468;DHT22;13384;24.794;110.498;2022-08-19T07:22:56;36.20;85.60
25468;DHT22;13384;24.794;110.498;2022-08-19T07:25:28;36.40;86.50
25468;DHT22;13384;24.794;110.498;2022-08-19T07:28:01;36.70;83.10
25468;DHT22;13384;24.794;110.498;2022-08-19T07:30:32;36.60;82.30
25468;DHT22;13384;24.794;110.498;2022-08-19T07:33:04;36.50;86.60
25468;DHT22;13384;24.794;110.498;2022-08-19T07:35:36;36.50;86.30
25468;DHT22;13384;24.794;110.498;2022-08-19T07:38:07;36.60;82.10
25468;DHT22;13384;24.794;110.498;2022-08-19T07:40:40;36.50;82.50
25468;DHT22;13384;24.794;110.498;2022-08-19T07:43:11;36.50;81.50
25468;DHT22;13384;24.794;110.498;2022-08-19T07:45:46;36.60;80.30
25468;DHT22;13384;24.794;110.498;2022-08-19T07:48:17;36.80;80.00
25468;DHT22;13384;24.794;110.498;2022-08-19T07:50:49;37.00;79.10
25468;DHT22;13384;24.794;110.498;2022-08-19T07:53:23;37.20;79.30
25468;DHT22;13384;24.794;110.498;2022-08-19T07:55:54;37.10;80.50
25468;DHT22;13384;24.794;110.498;2022-08-19T07:58:36;37.10;80.30
25468;DHT22;13384;24.794;110.498;2022-08-19T08:01:11;36.90;81.30
25468;DHT22;13384;24.794;110.498;2022-08-19T08:03:43;36.90;83.90
25468;DHT22;13384;24.794;110.498;2022-08-19T08:06:34;36.80;82.80
25468;DHT22;13384;24.794;110.498;2022-08-19T08:09:27;36.70;84.80
25468;DHT22;13384;24.794;110.498;2022-08-19T08:12:23;36.70;84.60
25468;DHT22;13384;24.794;110.498;2022-08-19T08:15:08;36.60;82.50
25468;DHT22;13384;24.794;110.498;2022-08-19T08:17:45;36.50;82.70
25468;DHT22;13384;24.794;110.498;2022-08-19T08:20:19;36.60;83.00
25468;DHT22;13384;24.794;110.498;2022-08-19T08:22:51;37.00;84.40
25468;DHT22;13384;24.794;110.498;2022-08-19T08:25:40;37.20;82.60
25468;DHT22;13384;24.794;110.498;2022-08-19T08:28:12;37.30;80.00
25468;DHT22;13384;24.794;110.498;2022-08-19T08:30:47;37.40;81.40
25468;DHT22;13384;24.794;110.498;2022-08-19T08:33:42;37.40;79.50
25468;DHT22;13384;24.794;110.498;2022-08-19T08:36:14;37.10;82.90
25468;DHT22;13384;24.794;110.498;2022-08-19T08:38:46;36.90;81.10
25468;DHT22;13384;24.794;110.498;2022-08-19T08:44:10;37.30;82.80
25468;DHT22;13384;24.794;110.498;2022-08-19T08:46:51;37.40;80.60
25468;DHT22;13384;24.794;110.498;2022-08-19T08:52:43;37.50;79.60
25468;DHT22;13384;24.794;110.498;2022-08-19T08:55:36;37.50;77.90
25468;DHT22;13384;24.794;110.498;2022-08-19T08:58:20;36.90;80.50
25468;DHT22;13384;24.794;110.498;2022-08-19T09:00:55;36.70;81.30
25468;DHT22;13384;24.794;110.498;2022-08-19T09:03:28;36.60;81.00
25468;DHT22;13384;24.794;110.498;2022-08-19T09:06:29;36.50;81.80
25468;DHT22;13384;24.794;110.498;2022-08-19T09:15:02;36.20;83.70
25468;DHT22;13384;24.794;110.498;2022-08-19T09:17:36;36.30;83.60
25468;DHT22;13384;24.794;110.498;2022-08-19T09:20:22;36.20;81.40
25468;DHT22;13384;24.794;110.498;2022-08-19T09:22:54;36.10;81.90
25468;DHT22;13384;24.794;110.498;2022-08-19T09:25:26;36.10;82.00
25468;DHT22;13384;24.794;110.498;2022-08-19T09:27:58;36.10;83.50
25468;DHT22;13384;24.794;110.498;2022-08-19T09:30:41;36.10;82.70
25468;DHT22;13384;24.794;110.498;2022-08-19T09:33:12;36.10;83.90
25468;DHT22;13384;24.794;110.498;2022-08-19T09:35:44;36.20;81.70
25468;DHT22;13384;24.794;110.498;2022-08-19T09:38:21;36.10;80.60
25468;DHT22;13384;24.794;110.498;2022-08-19T09:40:52;36.20;79.70
25468;DHT22;13384;24.794;110.498;2022-08-19T09:43:24;36.20;82.70
25468;DHT22;13384;24.794;110.498;2022-08-19T09:46:03;36.30;82.10
25468;DHT22;13384;24.794;110.498;2022-08-19T09:48:37;36.20;83.70
25468;DHT22;13384;24.794;110.498;2022-08-19T09:51:12;36.30;81.70
25468;DHT22;13384;24.794;110.498;2022-08-19T09:54:07;36.20;82.40
25468;DHT22;13384;24.794;110.498;2022-08-19T09:56:39;36.00;84.70
25468;DHT22;13384;24.794;110.498;2022-08-19T09:59:35;35.90;82.50
25468;DHT22;13384;24.794;110.498;2022-08-19T10:02:06;35.80;84.40
25468;DHT22;13384;24.794;110.498;2022-08-19T10:04:58;35.70;85.50
25468;DHT22;13384;24.794;110.498;2022-08-19T10:08:19;35.50;87.40
25468;DHT22;13384;24.794;110.498;2022-08-19T10:10:56;35.40;88.30
25468;DHT22;13384;24.794;110.498;2022-08-19T10:13:48;35.20;88.40
25468;DHT22;13384;24.794;110.498;2022-08-19T10:16:22;35.10;88.90
25468;DHT22;13384;24.794;110.498;2022-08-19T10:18:58;34.90;90.00
25468;DHT22;13384;24.794;110.498;2022-08-19T10:21:34;34.80;90.40
25468;DHT22;13384;24.794;110.498;2022-08-19T10:24:08;34.70;91.00
25468;DHT22;13384;24.794;110.498;2022-08-19T10:26:40;34.60;91.10
25468;DHT22;13384;24.794;110.498;2022-08-19T10:29:26;34.50;91.10
25468;DHT22;13384;24.794;110.498;2022-08-19T10:32:03;34.40;91.70
25468;DHT22;13384;24.794;110.498;2022-08-19T10:34:38;34.30;92.40
25468;DHT22;13384;24.794;110.498;2022-08-19T10:37:17;34.20;92.30
25468;DHT22;13384;24.794;110.498;2022-08-19T10:39:57;34.60;92.30
25468;DHT22;13384;24.794;110.498;2022-08-19T10:42:28;34.80;92.10
25468;DHT22;13384;24.794;110.498;2022-08-19T10:45:02;34.70;92.60
25468;DHT22;13384;24.794;110.498;2022-08-19T10:47:35;34.40;94.50
25468;DHT22;13384;24.794;110.498;2022-08-19T10:50:06;34.10;95.30
25468;DHT22;13384;24.794;110.498;2022-08-19T10:53:04;33.70;95.90
25468;DHT22;13384;24.794;110.498;2022-08-19T10:55:38;33.60;96.70
25468;DHT22;13384;24.794;110.498;2022-08-19T10:58:27;33.40;96.70
25468;DHT22;13384;24.794;110.498;2022-08-19T11:00:59;33.10;97.40
25468;DHT22;13384;24.794;110.498;2022-08-19T11:03:31;33.00;98.30
25468;DHT22;13384;24.794;110.498;2022-08-19T11:06:19;32.70;98.90
25468;DHT22;13384;24.794;110.498;2022-08-19T11:08:52;32.50;99.90
25468;DHT22;13384;24.794;110.498;2022-08-19T11:11:25;32.40;99.90
25468;DHT22;13384;24.794;110.498;2022-08-19T11:13:56;32.30;99.90
25468;DHT22;13384;24.794;110.498;2022-08-19T11:16:28;32.20;99.90
25468;DHT22;13384;24.794;110.498;2022-08-19T11:19:00;32.20;99.90
25468;DHT22;13384;24.794;110.498;2022-08-19T11:21:36;32.10;99.90
25468;DHT22;13384;24.794;110.498;2022-08-19T11:24:11;32.00;99.90
25468;DHT22;13384;24.794;110.498;2022-08-19T11:26:44;31.80;99.90
25468;DHT22;13384;24.794;110.498;2022-08-19T11:29:17;31.70;99.90
25468;DHT22;13384;24.794;110.498;2022-08-19T11:31:49;31.50;99.90
25468;DHT22;13384;24.794;110.498;2022-08-19T11:34:22;31.70;99.90
25468;DHT22;13384;24.794;110.498;2022-08-19T11:36:56;31.60;99.90
25468;DHT22;13384;24.794;110.498;2022-08-19T11:39:32;31.40;99.90
25468;DHT22;13384;24.794;110.498;2022-08-19T11:42:07;31.20;99.90
25468;DHT22;13384;24.794;110.498;2022-08-19T11:44:56;31.10;99.90
25468;DHT22;13384;24.794;110.498;2022-08-19T11:47:28;31.20;99.90
25468;DHT22;13384;24.794;110.498;2022-08-19T11:50:02;31.30;99.90
25468;DHT22;13384;24.794;110.498;2022-08-19T11:52:34;31.30;99.90
25468;DHT22;13384;24.794;110.498;2022-08-19T11:55:06;31.30;99.90
25468;DHT22;13384;24.794;110.498;2022-08-19T11:57:57;31.30;99.90
25468;DHT22;13384;24.794;110.498;2022-08-19T12:00:29;31.20;99.90
25468;DHT22;13384;24.794;110.498;2022-08-19T12:03:00;31.00;99.90
25468;DHT22;13384;24.794;110.498;2022-08-19T12:05:31;31.00;99.90
25468;DHT22;13384;24.794;110.498;2022-08-19T12:08:03;31.00;99.90
25468;DHT22;13384;24.794;110.498;2022-08-19T12:10:35;30.80;99.90
25468;DHT22;13384;24.794;110.498;2022-08-19T12:13:09;30.70;99.90
25468;DHT22;13384;24.794;110.498;2022-08-19T12:15:41;30.80;99.90
25468;DHT22;13384;24.794;110.498;2022-08-19T12:18:13;30.70;99.90
25468;DHT22;13384;24.794;110.498;2022-08-19T12:20:46;30.70;99.90
25468;DHT22;13384;24.794;110.498;2022-08-19T12:23:18;30.60;99.90
25468;DHT22;13384;24.794;110.498;2022-08-19T12:25:50;30.50;99.90
25468;DHT22;13384;24.794;110.498;2022-08-19T12:28:24;30.50;99.90
25468;DHT22;13384;24.794;110.498;2022-08-19T12:30:56;30.40;99.90
25468;DHT22;13384;24.794;110.498;2022-08-19T12:33:28;30.50;99.90
25468;DHT22;13384;24.794;110.498;2022-08-19T12:36:19;30.50;99.90
25468;DHT22;13384;24.794;110.498;2022-08-19T12:38:53;30.60;99.90
25468;DHT22;13384;24.794;110.498;2022-08-19T12:41:24;30.50;99.90
25468;DHT22;13384;24.794;110.498;2022-08-19T12:43:55;30.20;99.90
25468;DHT22;13384;24.794;110.498;2022-08-19T12:46:27;30.00;99.90
25468;DHT22;13384;24.794;110.498;2022-08-19T12:49:04;30.10;99.90
25468;DHT22;13384;24.794;110.498;2022-08-19T12:51:55;30.30;99.90
25468;DHT22;13384;24.794;110.498;2022-08-19T12:54:29;30.40;99.90
25468;DHT22;13384;24.794;110.498;2022-08-19T12:57:24;30.20;99.90
25468;DHT22;13384;24.794;110.498;2022-08-19T13:00:13;30.10;99.90
25468;DHT22;13384;24.794;110.498;2022-08-19T13:02:48;30.10;99.90
25468;DHT22;13384;24.794;110.498;2022-08-19T13:05:23;29.80;99.90
25468;DHT22;13384;24.794;110.498;2022-08-19T13:07:56;29.90;99.90
25468;DHT22;13384;24.794;110.498;2022-08-19T13:10:33;30.10;99.90
25468;DHT22;13384;24.794;110.498;2022-08-19T13:13:08;30.20;99.90
25468;DHT22;13384;24.794;110.498;2022-08-19T13:15:41;30.30;99.90
25468;DHT22;13384;24.794;110.498;2022-08-19T13:18:35;30.30;99.90
25468;DHT22;13384;24.794;110.498;2022-08-19T13:21:08;30.30;99.90
25468;DHT22;13384;24.794;110.498;2022-08-19T13:23:42;30.30;99.90
25468;DHT22;13384;24.794;110.498;2022-08-19T13:26:14;30.30;99.90
25468;DHT22;13384;24.794;110.498;2022-08-19T13:28:46;30.30;99.90
25468;DHT22;13384;24.794;110.498;2022-08-19T13:31:53;30.30;99.90
25468;DHT22;13384;24.794;110.498;2022-08-19T13:35:07;30.20;99.90
25468;DHT22;13384;24.794;110.498;2022-08-19T13:37:46;30.20;99.90
25468;DHT22;13384;24.794;110.498;2022-08-19T13:40:20;30.00;99.90
25468;DHT22;13384;24.794;110.498;2022-08-19T13:42:55;29.70;99.90
25468;DHT22;13384;24.794;110.498;2022-08-19T13:45:28;29.80;99.90
25468;DHT22;13384;24.794;110.498;2022-08-19T13:48:01;29.80;99.90
25468;DHT22;13384;24.794;110.498;2022-08-19T13:50:42;29.80;99.90
25468;DHT22;13384;24.794;110.498;2022-08-19T13:53:15;29.80;99.90
25468;DHT22;13384;24.794;110.498;2022-08-19T13:55:46;29.80;99.90
25468;DHT22;13384;24.794;110.498;2022-08-19T13:58:18;29.70;99.90
25468;DHT22;13384;24.794;110.498;2022-08-19T14:00:51;29.80;99.90
25468;DHT22;13384;24.794;110.498;2022-08-19T14:03:26;29.80;99.90
25468;DHT22;13384;24.794;110.498;2022-08-19T14:06:00;29.70;99.90
25468;DHT22;13384;24.794;110.498;2022-08-19T14:08:38;29.70;99.90
25468;DHT22;13384;24.794;110.498;2022-08-19T14:11:15;29.70;99.90
25468;DHT22;13384;24.794;110.498;2022-08-19T14:13:47;29.70;99.90
25468;DHT22;13384;24.794;110.498;2022-08-19T14:16:19;29.70;99.90
25468;DHT22;13384;24.794;110.498;2022-08-19T14:18:52;29.60;99.90
25468;DHT22;13384;24.794;110.498;2022-08-19T14:21:26;29.60;99.90
25468;DHT22;13384;24.794;110.498;2022-08-19T14:23:58;29.60;99.90
25468;DHT22;13384;24.794;110.498;2022-08-19T14:26:29;29.60;99.90
25468;DHT22;13384;24.794;110.498;2022-08-19T14:29:01;29.60;99.90
25468;DHT22;13384;24.794;110.498;2022-08-19T14:31:33;29.60;99.90
25468;DHT22;13384;24.794;110.498;2022-08-19T14:34:26;29.60;99.90
25468;DHT22;13384;24.794;110.498;2022-08-19T14:36:58;29.50;99.90
25468;DHT22;13384;24.794;110.498;2022-08-19T14:39:30;29.00;99.90
25468;DHT22;13384;24.794;110.498;2022-08-19T14:42:07;29.00;99.90
25468;DHT22;13384;24.794;110.498;2022-08-19T14:45:00;29.00;99.90
25468;DHT22;13384;24.794;110.498;2022-08-19T14:47:31;29.10;99.90
25468;DHT22;13384;24.794;110.498;2022-08-19T14:50:09;29.00;99.90
25468;DHT22;13384;24.794;110.498;2022-08-19T14:53:06;28.80;99.90
25468;DHT22;13384;24.794;110.498;2022-08-19T14:55:46;28.80;99.90
25468;DHT22;13384;24.794;110.498;2022-08-19T14:58:39;29.00;99.90
25468;DHT22;13384;24.794;110.498;2022-08-19T15:01:12;29.10;99.90
25468;DHT22;13384;24.794;110.498;2022-08-19T15:03:44;29.10;99.90
25468;DHT22;13384;24.794;110.498;2022-08-19T15:06:17;29.10;99.90
25468;DHT22;13384;24.794;110.498;2022-08-19T15:08:49;29.10;99.90
25468;DHT22;13384;24.794;110.498;2022-08-19T15:11:47;29.10;99.90
25468;DHT22;13384;24.794;110.498;2022-08-19T15:14:19;29.10;99.90
25468;DHT22;13384;24.794;110.498;2022-08-19T15:16:54;29.20;99.90
25468;DHT22;13384;24.794;110.498;2022-08-19T15:19:26;29.20;99.90
25468;DHT22;13384;24.794;110.498;2022-08-19T15:21:59;29.10;99.90
25468;DHT22;13384;24.794;110.498;2022-08-19T15:24:30;29.10;99.90
25468;DHT22;13384;24.794;110.498;2022-08-19T15:27:05;29.10;99.90
25468;DHT22;13384;24.794;110.498;2022-08-19T15:29:40;28.90;99.90
25468;DHT22;13384;24.794;110.498;2022-08-19T15:32:14;28.90;99.90
25468;DHT22;13384;24.794;110.498;2022-08-19T15:35:08;28.90;99.90
25468;DHT22;13384;24.794;110.498;2022-08-19T15:37:40;28.90;99.90
25468;DHT22;13384;24.794;110.498;2022-08-19T15:40:12;28.90;99.90
25468;DHT22;13384;24.794;110.498;2022-08-19T15:42:44;28.80;99.90
25468;DHT22;13384;24.794;110.498;2022-08-19T15:45:40;28.70;99.90
25468;DHT22;13384;24.794;110.498;2022-08-19T15:48:17;28.60;99.90
25468;DHT22;13384;24.794;110.498;2022-08-19T15:50:49;28.80;99.90
25468;DHT22;13384;24.794;110.498;2022-08-19T15:53:23;28.90;99.90
25468;DHT22;13384;24.794;110.498;2022-08-19T15:55:59;28.80;99.90
25468;DHT22;13384;24.794;110.498;2022-08-19T15:58:32;28.80;99.90
25468;DHT22;13384;24.794;110.498;2022-08-19T16:01:24;28.90;99.90
25468;DHT22;13384;24.794;110.498;2022-08-19T16:04:04;28.80;99.90
25468;DHT22;13384;24.794;110.498;2022-08-19T16:06:59;28.80;99.90
25468;DHT22;13384;24.794;110.498;2022-08-19T16:09:53;28.80;99.90
25468;DHT22;13384;24.794;110.498;2022-08-19T16:12:32;28.60;99.90
25468;DHT22;13384;24.794;110.498;2022-08-19T16:15:05;28.60;99.90